createdAt,value
2022-09-24T00:03:25.140Z,11.80
2022-09-24T00:08:26.843Z,11.70
2022-09-24T00:13:28.666Z,11.60
2022-09-24T00:18:30.725Z,11.50
2022-09-24T00:23:32.376Z,11.50
2022-09-24T00:28:34.412Z,11.40
2022-09-24T00:33:36.099Z,11.40
2022-09-24T00:38:37.734Z,11.30
2022-09-24T00:43:39.612Z,11.30
2022-09-24T00:48:42.870Z,11.20
2022-09-24T00:53:46.504Z,11.20
2022-09-24T00:58:56.155Z,11.20
2022-09-24T01:03:59.266Z,11.30
2022-09-24T01:09:01.101Z,11.30
2022-09-24T01:14:24.882Z,11.30
2022-09-24T01:19:46.344Z,11.30
2022-09-24T01:24:48.814Z,11.40
2022-09-24T01:30:11.164Z,11.50
2022-09-24T01:35:31.152Z,11.60
2022-09-24T01:40:33.266Z,11.70
2022-09-24T01:45:38.578Z,11.80
2022-09-24T01:50:59.288Z,11.80
2022-09-24T01:56:08.365Z,11.80
2022-09-24T02:01:15.256Z,11.70
2022-09-24T02:06:22.462Z,11.70
2022-09-24T02:11:25.321Z,11.70
2022-09-24T02:16:36.075Z,11.70
2022-09-24T02:21:39.948Z,11.70
2022-09-24T02:26:41.825Z,11.80
2022-09-24T02:31:48.084Z,11.70
2022-09-24T02:36:54.308Z,11.70
2022-09-24T02:41:56.936Z,11.70
2022-09-24T02:46:59.105Z,11.60
2022-09-24T02:52:01.124Z,11.60
2022-09-24T02:57:02.790Z,11.60
2022-09-24T03:02:04.531Z,11.60
2022-09-24T03:07:06.293Z,11.60
2022-09-24T03:12:08.190Z,11.60
2022-09-24T03:17:09.815Z,11.60
2022-09-24T03:22:11.439Z,11.60
2022-09-24T03:27:13.184Z,11.50
2022-09-24T03:32:14.804Z,11.50
2022-09-24T03:37:16.446Z,11.50
2022-09-24T03:42:18.072Z,11.50
2022-09-24T03:47:19.702Z,11.50
2022-09-24T03:52:21.423Z,11.50
2022-09-24T03:57:23.076Z,11.50
2022-09-24T04:02:24.968Z,11.50
2022-09-24T04:07:26.628Z,11.50
2022-09-24T04:12:29.414Z,11.50
2022-09-24T04:17:33.871Z,11.30
2022-09-24T04:22:35.539Z,11.40
2022-09-24T04:27:37.185Z,11.30
2022-09-24T04:32:39.858Z,11.20
2022-09-24T04:37:42.743Z,11.10
2022-09-24T04:42:46.297Z,11.00
2022-09-24T04:47:52.586Z,10.90
2022-09-24T04:52:55.188Z,10.90
2022-09-24T04:57:57.645Z,10.80
2022-09-24T05:03:03.246Z,10.80
2022-09-24T05:08:04.979Z,10.70
2022-09-24T05:13:06.627Z,10.60
2022-09-24T05:18:08.236Z,10.60
2022-09-24T05:23:10.061Z,10.50
2022-09-24T05:28:11.672Z,10.50
2022-09-24T05:33:13.697Z,10.50
2022-09-24T05:38:15.338Z,10.40
2022-09-24T05:43:19.253Z,10.40
2022-09-24T05:48:21.405Z,10.50
2022-09-24T05:53:23.350Z,10.50
2022-09-24T05:58:25.131Z,10.50
2022-09-24T06:03:27.172Z,10.80
2022-09-24T06:08:30.759Z,10.80
2022-09-24T06:13:34.863Z,11.00
2022-09-24T06:18:40.039Z,11.20
2022-09-24T06:23:42.287Z,11.50
2022-09-24T06:28:43.951Z,11.70
2022-09-24T06:33:45.642Z,11.80
2022-09-24T06:38:51.864Z,12.00
2022-09-24T06:43:56.519Z,12.10
2022-09-24T06:48:58.375Z,12.10
2022-09-24T06:53:59.975Z,12.10
2022-09-24T06:59:01.687Z,12.10
2022-09-24T07:04:03.429Z,12.10
2022-09-24T07:09:05.699Z,12.10
2022-09-24T07:14:07.397Z,12.20
2022-09-24T07:19:09.279Z,12.20
2022-09-24T07:24:10.964Z,12.20
2022-09-24T07:29:12.582Z,12.30
2022-09-24T07:34:14.424Z,12.50
2022-09-24T07:39:16.455Z,12.60
2022-09-24T07:44:23.078Z,12.70
2022-09-24T07:49:24.706Z,13.00
2022-09-24T07:54:26.446Z,13.10
2022-09-24T07:59:28.451Z,13.40
2022-09-24T08:04:31.862Z,13.70
2022-09-24T08:09:33.497Z,14.00
2022-09-24T08:14:35.257Z,14.40
2022-09-24T08:19:36.951Z,14.70
2022-09-24T08:24:38.639Z,15.00
2022-09-24T08:29:40.461Z,15.30
2022-09-24T08:34:42.223Z,15.40
2022-09-24T08:39:43.903Z,15.50
2022-09-24T08:45:05.623Z,15.60
2022-09-24T08:50:23.270Z,15.80
2022-09-24T08:55:35.537Z,16.10
2022-09-24T09:00:47.110Z,16.20
2022-09-24T09:05:55.295Z,16.40
2022-09-24T09:11:03.393Z,16.30
2022-09-24T09:16:06.846Z,16.50
2022-09-24T09:21:25.759Z,16.60
2022-09-24T09:26:27.404Z,16.80
2022-09-24T09:31:55.433Z,16.80
2022-09-24T09:37:07.375Z,16.50
2022-09-24T09:42:28.144Z,16.20
2022-09-24T09:47:49.441Z,16.00
2022-09-24T09:52:51.326Z,16.00
2022-09-24T09:57:53.623Z,16.00
2022-09-24T10:02:55.555Z,16.10
2022-09-24T10:08:00.451Z,16.10
2022-09-24T10:13:10.130Z,16.20
2022-09-24T10:18:14.425Z,16.30
2022-09-24T10:23:22.243Z,16.40
2022-09-24T10:28:43.183Z,16.40
2022-09-24T10:33:48.023Z,16.40
2022-09-24T10:38:50.160Z,16.50
2022-09-24T10:43:53.804Z,16.60
2022-09-24T10:49:22.973Z,16.70
2022-09-24T10:54:51.080Z,16.90
2022-09-24T11:00:21.719Z,17.10
2022-09-24T11:05:24.474Z,17.70
2022-09-24T11:11:02.653Z,18.20
2022-09-24T11:16:16.109Z,18.70
2022-09-24T11:21:35.023Z,19.20
2022-09-24T11:27:08.347Z,19.30
2022-09-24T11:32:29.602Z,19.30
2022-09-24T11:37:55.873Z,19.50
2022-09-24T11:43:25.524Z,19.90
2022-09-24T11:48:45.788Z,20.30
2022-09-24T11:54:00.651Z,20.60
2022-09-24T11:59:43.918Z,20.50
2022-09-24T12:04:53.525Z,20.40
2022-09-24T12:10:19.172Z,20.10
2022-09-24T12:15:25.089Z,20.10
2022-09-24T12:20:29.353Z,20.00
2022-09-24T12:25:39.474Z,19.90
2022-09-24T12:31:12.244Z,19.90
2022-09-24T12:36:39.225Z,19.90
2022-09-24T12:41:49.250Z,20.10
2022-09-24T12:47:00.968Z,20.40
2022-09-24T12:52:18.786Z,20.60
2022-09-24T12:57:25.970Z,20.60
2022-09-24T13:02:43.732Z,20.30
2022-09-24T13:08:23.164Z,20.40
2022-09-24T13:13:31.735Z,21.00
2022-09-24T13:18:37.391Z,21.50
2022-09-24T13:23:38.986Z,21.60
2022-09-24T13:29:01.752Z,21.40
2022-09-24T13:34:06.216Z,21.50
2022-09-24T13:39:25.022Z,21.10
2022-09-24T13:44:29.854Z,21.20
2022-09-24T13:49:33.683Z,21.20
2022-09-24T13:54:48.780Z,21.30
2022-09-24T14:00:00.858Z,21.20
2022-09-24T14:05:03.040Z,21.20
2022-09-24T14:10:13.169Z,20.80
2022-09-24T14:15:16.621Z,21.00
2022-09-24T14:20:19.480Z,21.30
2022-09-24T14:25:28.408Z,21.20
2022-09-24T14:30:31.984Z,21.00
2022-09-24T14:35:37.099Z,21.10
2022-09-24T14:40:49.620Z,21.10
2022-09-24T14:45:52.267Z,21.00
2022-09-24T14:50:53.900Z,20.90
2022-09-24T14:55:56.585Z,20.60
2022-09-24T15:01:05.743Z,20.10
2022-09-24T15:06:35.022Z,19.90
2022-09-24T15:11:43.222Z,19.90
2022-09-24T15:16:49.698Z,20.10
2022-09-24T15:21:53.334Z,20.20
2022-09-24T15:27:02.855Z,20.60
2022-09-24T15:32:15.169Z,20.50
2022-09-24T15:37:20.174Z,20.60
2022-09-24T15:42:24.548Z,20.40
2022-09-24T15:47:26.233Z,20.10
2022-09-24T15:52:31.828Z,20.00
2022-09-24T15:57:33.614Z,19.80
2022-09-24T16:02:35.415Z,19.60
2022-09-24T16:07:37.281Z,19.60
2022-09-24T16:12:39.779Z,19.40
2022-09-24T16:17:41.751Z,19.30
2022-09-24T16:22:43.383Z,19.10
2022-09-24T16:27:45.103Z,18.90
2022-09-24T16:32:46.773Z,18.80
2022-09-24T16:37:48.426Z,18.70
2022-09-24T16:42:50.164Z,18.60
2022-09-24T16:47:51.992Z,18.50
2022-09-24T16:52:55.384Z,18.40
2022-09-24T16:57:57.129Z,18.20
2022-09-24T17:02:59.632Z,18.10
2022-09-24T17:08:01.545Z,18.00
2022-09-24T17:13:03.338Z,17.90
2022-09-24T17:18:05.047Z,17.90
2022-09-24T17:23:06.896Z,17.80
2022-09-24T17:28:11.133Z,17.70
2022-09-24T17:33:41.332Z,17.60
2022-09-24T17:38:34.884Z,17.60
2022-09-24T17:43:37.295Z,17.50
2022-09-24T17:48:40.912Z,17.40
2022-09-24T17:53:42.976Z,17.40
2022-09-24T17:58:46.897Z,17.20
2022-09-24T18:03:56.540Z,17.20
2022-09-24T18:08:59.967Z,17.10
2022-09-24T18:14:02.610Z,17.00
2022-09-24T18:19:04.321Z,17.00
2022-09-24T18:24:06.085Z,17.00
2022-09-24T18:29:13.034Z,16.90
2022-09-24T18:34:16.036Z,16.70
2022-09-24T18:39:23.861Z,16.70
2022-09-24T18:44:26.675Z,16.50
2022-09-24T18:49:28.567Z,16.30
2022-09-24T18:54:30.913Z,16.10
2022-09-24T18:59:44.145Z,15.90
2022-09-24T19:04:45.850Z,15.70
2022-09-24T19:09:47.476Z,15.50
2022-09-24T19:14:49.739Z,15.40
2022-09-24T19:19:52.653Z,15.40
2022-09-24T19:24:54.665Z,15.20
2022-09-24T19:29:56.305Z,15.10
2022-09-24T19:34:57.920Z,15.00
2022-09-24T19:39:59.751Z,14.80
2022-09-24T19:45:01.428Z,14.70
2022-09-24T19:50:03.584Z,14.50
2022-09-24T19:55:05.565Z,14.40
2022-09-24T20:00:08.099Z,14.30
2022-09-24T20:05:09.768Z,14.20
2022-09-24T20:10:12.165Z,14.10
2022-09-24T20:15:13.887Z,14.10
2022-09-24T20:20:15.900Z,14.00
2022-09-24T20:25:17.596Z,13.90
2022-09-24T20:30:21.296Z,13.80
2022-09-24T20:35:22.935Z,13.70
2022-09-24T20:40:24.636Z,13.60
2022-09-24T20:45:26.339Z,13.50
2022-09-24T20:50:28.002Z,13.40
2022-09-24T20:55:30.394Z,13.30
2022-09-24T21:00:35.737Z,13.30
2022-09-24T21:05:37.912Z,13.20
2022-09-24T21:10:39.540Z,13.20
2022-09-24T21:15:41.236Z,13.10
2022-09-24T21:20:43.151Z,13.10
2022-09-24T21:25:59.952Z,13.10
2022-09-24T21:31:03.469Z,13.00
2022-09-24T21:36:07.454Z,13.00
2022-09-24T21:41:09.472Z,13.00
2022-09-24T21:46:11.135Z,12.90
2022-09-24T21:51:19.366Z,12.90
2022-09-24T21:56:21.865Z,12.80
2022-09-24T22:01:29.205Z,12.80
2022-09-24T22:06:31.366Z,12.70
2022-09-24T22:11:34.424Z,12.50
2022-09-24T22:16:36.342Z,12.50
2022-09-24T22:21:38.123Z,12.50
2022-09-24T22:26:40.281Z,12.40
2022-09-24T22:31:41.924Z,12.40
2022-09-24T22:36:43.592Z,12.30
2022-09-24T22:41:45.305Z,12.30
2022-09-24T22:46:46.962Z,12.30
2022-09-24T22:51:48.886Z,12.30
2022-09-24T22:56:50.980Z,12.30
2022-09-24T23:01:52.744Z,12.20
2022-09-24T23:06:54.428Z,12.10
2022-09-24T23:11:56.623Z,12.10
2022-09-24T23:16:58.931Z,12.00
2022-09-24T23:22:00.715Z,12.00
2022-09-24T23:27:02.341Z,11.90
2022-09-24T23:32:04.540Z,11.80
2022-09-24T23:37:06.171Z,11.80
2022-09-24T23:42:08.507Z,11.70
2022-09-24T23:47:10.122Z,11.60
2022-09-24T23:52:11.737Z,11.60
2022-09-24T23:57:13.457Z,11.50
